sensor_id;sensor_type;location;lat;lon;timestamp;P1;durP1;ratioP1;P2;durP2;ratioP2
35592;SDS011;64447;52.140;5.602;2024-03-25T15:45:55;4.95;;;3.50;;
35592;SDS011;64447;52.140;5.602;2024-03-25T15:48:22;5.13;;;3.40;;
35592;SDS011;64447;52.140;5.602;2024-03-25T15:50:48;7.28;;;3.67;;
35592;SDS011;64447;52.140;5.602;2024-03-25T15:53:14;3.72;;;2.88;;
35592;SDS011;64447;52.140;5.602;2024-03-25T15:55:40;5.80;;;3.92;;
35592;SDS011;64447;52.140;5.602;2024-03-25T15:58:08;6.32;;;3.80;;
35592;SDS011;64447;52.140;5.602;2024-03-25T16:00:34;6.60;;;3.60;;
35592;SDS011;64447;52.140;5.602;2024-03-25T16:03:01;9.15;;;3.63;;
35592;SDS011;64447;52.140;5.602;2024-03-25T16:05:27;5.65;;;3.88;;
35592;SDS011;64447;52.140;5.602;2024-03-25T16:07:53;6.10;;;3.40;;
35592;SDS011;64447;52.140;5.602;2024-03-25T16:10:23;4.47;;;3.28;;
35592;SDS011;64447;52.140;5.602;2024-03-25T16:12:50;9.05;;;3.83;;
35592;SDS011;64447;52.140;5.602;2024-03-25T16:15:16;5.60;;;3.42;;
35592;SDS011;64447;52.140;5.602;2024-03-25T16:17:42;4.82;;;3.08;;
35592;SDS011;64447;52.140;5.602;2024-03-25T16:20:11;7.05;;;3.53;;
35592;SDS011;64447;52.140;5.602;2024-03-25T16:22:37;5.00;;;2.97;;
35592;SDS011;64447;52.140;5.602;2024-03-25T16:25:02;4.78;;;3.30;;
35592;SDS011;64447;52.140;5.602;2024-03-25T16:27:28;5.70;;;3.30;;
35592;SDS011;64447;52.140;5.602;2024-03-25T16:29:56;4.43;;;3.13;;
35592;SDS011;64447;52.140;5.602;2024-03-25T16:32:31;6.45;;;3.78;;
35592;SDS011;64447;52.140;5.602;2024-03-25T16:34:57;6.78;;;3.83;;
35592;SDS011;64447;52.140;5.602;2024-03-25T16:37:23;10.32;;;4.65;;
35592;SDS011;64447;52.140;5.602;2024-03-25T16:39:48;6.38;;;4.05;;
35592;SDS011;64447;52.140;5.602;2024-03-25T16:42:14;6.95;;;3.85;;
35592;SDS011;64447;52.140;5.602;2024-03-25T16:44:41;8.30;;;3.97;;
35592;SDS011;64447;52.140;5.602;2024-03-25T16:47:06;8.65;;;4.05;;
35592;SDS011;64447;52.140;5.602;2024-03-25T16:49:32;9.82;;;4.38;;
35592;SDS011;64447;52.140;5.602;2024-03-25T16:51:58;9.02;;;4.38;;
35592;SDS011;64447;52.140;5.602;2024-03-25T16:54:23;8.05;;;3.75;;
35592;SDS011;64447;52.140;5.602;2024-03-25T16:56:49;7.25;;;3.75;;
35592;SDS011;64447;52.140;5.602;2024-03-25T16:59:14;7.18;;;4.38;;
35592;SDS011;64447;52.140;5.602;2024-03-25T17:01:40;7.80;;;4.38;;
35592;SDS011;64447;52.140;5.602;2024-03-25T17:04:05;89.00;;;13.18;;
35592;SDS011;64447;52.140;5.602;2024-03-25T17:06:31;64.00;;;12.32;;
35592;SDS011;64447;52.140;5.602;2024-03-25T17:08:57;7.53;;;4.30;;
35592;SDS011;64447;52.140;5.602;2024-03-25T17:11:22;8.65;;;4.20;;
35592;SDS011;64447;52.140;5.602;2024-03-25T17:13:48;9.75;;;4.88;;
35592;SDS011;64447;52.140;5.602;2024-03-25T17:16:13;9.18;;;4.55;;
35592;SDS011;64447;52.140;5.602;2024-03-25T17:18:39;8.60;;;4.65;;
35592;SDS011;64447;52.140;5.602;2024-03-25T17:21:05;8.95;;;4.55;;
35592;SDS011;64447;52.140;5.602;2024-03-25T17:23:32;6.30;;;4.22;;
35592;SDS011;64447;52.140;5.602;2024-03-25T17:25:57;6.38;;;4.22;;
35592;SDS011;64447;52.140;5.602;2024-03-25T17:28:27;9.60;;;4.35;;
35592;SDS011;64447;52.140;5.602;2024-03-25T17:30:57;7.22;;;4.22;;
35592;SDS011;64447;52.140;5.602;2024-03-25T17:33:31;10.73;;;4.53;;
35592;SDS011;64447;52.140;5.602;2024-03-25T17:35:56;7.90;;;4.75;;
35592;SDS011;64447;52.140;5.602;2024-03-25T17:38:22;7.35;;;4.20;;
35592;SDS011;64447;52.140;5.602;2024-03-25T17:40:48;4.88;;;3.83;;
35592;SDS011;64447;52.140;5.602;2024-03-25T17:43:14;7.45;;;4.22;;
35592;SDS011;64447;52.140;5.602;2024-03-25T17:45:40;10.75;;;4.65;;
35592;SDS011;64447;52.140;5.602;2024-03-25T17:48:06;7.18;;;4.25;;
35592;SDS011;64447;52.140;5.602;2024-03-25T17:50:32;6.10;;;3.85;;
35592;SDS011;64447;52.140;5.602;2024-03-25T17:52:57;7.72;;;3.92;;
35592;SDS011;64447;52.140;5.602;2024-03-25T17:55:23;6.63;;;3.97;;
35592;SDS011;64447;52.140;5.602;2024-03-25T17:57:49;4.65;;;4.13;;
35592;SDS011;64447;52.140;5.602;2024-03-25T18:00:14;7.07;;;4.57;;
35592;SDS011;64447;52.140;5.602;2024-03-25T18:02:41;5.85;;;4.28;;
35592;SDS011;64447;52.140;5.602;2024-03-25T18:05:07;6.35;;;4.75;;
35592;SDS011;64447;52.140;5.602;2024-03-25T18:07:33;10.15;;;4.50;;
35592;SDS011;64447;52.140;5.602;2024-03-25T18:09:59;7.72;;;4.20;;
35592;SDS011;64447;52.140;5.602;2024-03-25T18:12:25;8.13;;;4.40;;
35592;SDS011;64447;52.140;5.602;2024-03-25T18:14:52;6.55;;;4.32;;
35592;SDS011;64447;52.140;5.602;2024-03-25T18:17:18;6.90;;;4.88;;
35592;SDS011;64447;52.140;5.602;2024-03-25T18:19:44;7.90;;;4.90;;
35592;SDS011;64447;52.140;5.602;2024-03-25T18:22:11;5.75;;;4.13;;
35592;SDS011;64447;52.140;5.602;2024-03-25T18:24:38;8.85;;;4.75;;
35592;SDS011;64447;52.140;5.602;2024-03-25T18:27:03;10.50;;;5.57;;
35592;SDS011;64447;52.140;5.602;2024-03-25T18:29:29;7.78;;;6.35;;
35592;SDS011;64447;52.140;5.602;2024-03-25T18:31:55;8.30;;;6.85;;
35592;SDS011;64447;52.140;5.602;2024-03-25T18:34:21;12.27;;;6.55;;
35592;SDS011;64447;52.140;5.602;2024-03-25T18:36:46;8.43;;;5.80;;
35592;SDS011;64447;52.140;5.602;2024-03-25T18:39:12;10.65;;;6.13;;
35592;SDS011;64447;52.140;5.602;2024-03-25T18:41:38;5.90;;;4.75;;
35592;SDS011;64447;52.140;5.602;2024-03-25T18:44:04;10.63;;;5.45;;
35592;SDS011;64447;52.140;5.602;2024-03-25T18:46:31;11.27;;;5.78;;
35592;SDS011;64447;52.140;5.602;2024-03-25T18:48:56;6.53;;;5.72;;
35592;SDS011;64447;52.140;5.602;2024-03-25T18:51:22;9.57;;;5.72;;
35592;SDS011;64447;52.140;5.602;2024-03-25T18:53:48;6.00;;;4.95;;
35592;SDS011;64447;52.140;5.602;2024-03-25T18:56:13;12.60;;;5.65;;
35592;SDS011;64447;52.140;5.602;2024-03-25T18:58:42;7.55;;;5.15;;
35592;SDS011;64447;52.140;5.602;2024-03-25T19:01:07;7.95;;;5.47;;
35592;SDS011;64447;52.140;5.602;2024-03-25T19:03:35;8.27;;;4.93;;
35592;SDS011;64447;52.140;5.602;2024-03-25T19:06:02;6.53;;;4.50;;
35592;SDS011;64447;52.140;5.602;2024-03-25T19:08:28;10.10;;;4.75;;
35592;SDS011;64447;52.140;5.602;2024-03-25T19:10:53;7.88;;;5.38;;
35592;SDS011;64447;52.140;5.602;2024-03-25T19:13:19;9.60;;;5.85;;
35592;SDS011;64447;52.140;5.602;2024-03-25T19:15:45;10.70;;;7.68;;
35592;SDS011;64447;52.140;5.602;2024-03-25T19:18:11;10.80;;;7.97;;
35592;SDS011;64447;52.140;5.602;2024-03-25T19:20:37;9.88;;;6.90;;
35592;SDS011;64447;52.140;5.602;2024-03-25T19:23:03;11.48;;;7.40;;
35592;SDS011;64447;52.140;5.602;2024-03-25T19:25:29;10.55;;;6.43;;
35592;SDS011;64447;52.140;5.602;2024-03-25T19:27:54;7.50;;;5.40;;
35592;SDS011;64447;52.140;5.602;2024-03-25T19:30:20;5.55;;;3.80;;
35592;SDS011;64447;52.140;5.602;2024-03-25T19:32:46;11.43;;;4.30;;
35592;SDS011;64447;52.140;5.602;2024-03-25T19:35:13;7.13;;;4.45;;
35592;SDS011;64447;52.140;5.602;2024-03-25T19:37:38;6.35;;;4.32;;
35592;SDS011;64447;52.140;5.602;2024-03-25T19:40:04;6.50;;;4.70;;
35592;SDS011;64447;52.140;5.602;2024-03-25T19:42:32;12.20;;;5.63;;
35592;SDS011;64447;52.140;5.602;2024-03-25T19:44:58;7.13;;;5.82;;
35592;SDS011;64447;52.140;5.602;2024-03-25T19:47:23;11.15;;;6.93;;
35592;SDS011;64447;52.140;5.602;2024-03-25T19:49:51;8.32;;;5.18;;
35592;SDS011;64447;52.140;5.602;2024-03-25T19:52:17;8.13;;;4.55;;
35592;SDS011;64447;52.140;5.602;2024-03-25T19:54:43;5.82;;;4.30;;
35592;SDS011;64447;52.140;5.602;2024-03-25T19:57:08;8.05;;;4.30;;
35592;SDS011;64447;52.140;5.602;2024-03-25T19:59:35;7.10;;;4.85;;
35592;SDS011;64447;52.140;5.602;2024-03-25T20:02:01;8.18;;;4.68;;
35592;SDS011;64447;52.140;5.602;2024-03-25T20:04:27;6.95;;;4.65;;
35592;SDS011;64447;52.140;5.602;2024-03-25T20:06:52;13.93;;;5.97;;
35592;SDS011;64447;52.140;5.602;2024-03-25T20:09:18;11.85;;;6.38;;
35592;SDS011;64447;52.140;5.602;2024-03-25T20:11:44;12.32;;;8.10;;
35592;SDS011;64447;52.140;5.602;2024-03-25T20:14:10;11.80;;;6.35;;
35592;SDS011;64447;52.140;5.602;2024-03-25T20:16:41;10.25;;;6.13;;
35592;SDS011;64447;52.140;5.602;2024-03-25T20:19:10;14.90;;;6.40;;
35592;SDS011;64447;52.140;5.602;2024-03-25T20:21:36;9.23;;;6.25;;
35592;SDS011;64447;52.140;5.602;2024-03-25T20:24:06;7.13;;;5.50;;
35592;SDS011;64447;52.140;5.602;2024-03-25T20:26:32;9.80;;;4.65;;
35592;SDS011;64447;52.140;5.602;2024-03-25T20:28:57;5.82;;;4.40;;
35592;SDS011;64447;52.140;5.602;2024-03-25T20:31:23;6.10;;;3.90;;
35592;SDS011;64447;52.140;5.602;2024-03-25T20:33:49;6.32;;;4.00;;
35592;SDS011;64447;52.140;5.602;2024-03-25T20:36:16;6.45;;;4.13;;
35592;SDS011;64447;52.140;5.602;2024-03-25T20:38:42;6.75;;;4.25;;
35592;SDS011;64447;52.140;5.602;2024-03-25T20:41:08;8.05;;;4.07;;
35592;SDS011;64447;52.140;5.602;2024-03-25T20:43:37;8.55;;;4.10;;
35592;SDS011;64447;52.140;5.602;2024-03-25T20:46:06;8.52;;;4.85;;
35592;SDS011;64447;52.140;5.602;2024-03-25T20:48:31;12.27;;;5.75;;
35592;SDS011;64447;52.140;5.602;2024-03-25T20:50:57;12.40;;;6.88;;
35592;SDS011;64447;52.140;5.602;2024-03-25T20:53:23;5.60;;;4.80;;
35592;SDS011;64447;52.140;5.602;2024-03-25T20:55:49;12.18;;;4.90;;
35592;SDS011;64447;52.140;5.602;2024-03-25T20:58:15;9.23;;;5.13;;
35592;SDS011;64447;52.140;5.602;2024-03-25T21:00:41;10.88;;;5.13;;
35592;SDS011;64447;52.140;5.602;2024-03-25T21:03:07;11.10;;;5.30;;
35592;SDS011;64447;52.140;5.602;2024-03-25T21:05:32;9.35;;;4.70;;
35592;SDS011;64447;52.140;5.602;2024-03-25T21:07:59;8.07;;;4.65;;
35592;SDS011;64447;52.140;5.602;2024-03-25T21:10:25;8.90;;;4.55;;
35592;SDS011;64447;52.140;5.602;2024-03-25T21:12:51;7.35;;;5.18;;
35592;SDS011;64447;52.140;5.602;2024-03-25T21:17:42;7.35;;;5.28;;
35592;SDS011;64447;52.140;5.602;2024-03-25T21:20:08;12.25;;;4.97;;
35592;SDS011;64447;52.140;5.602;2024-03-25T21:22:35;10.07;;;4.90;;
35592;SDS011;64447;52.140;5.602;2024-03-25T21:25:01;9.30;;;4.82;;
35592;SDS011;64447;52.140;5.602;2024-03-25T21:27:26;7.28;;;4.63;;
35592;SDS011;64447;52.140;5.602;2024-03-25T21:29:52;16.15;;;5.20;;
35592;SDS011;64447;52.140;5.602;2024-03-25T21:32:18;6.82;;;4.40;;
35592;SDS011;64447;52.140;5.602;2024-03-25T21:34:43;8.38;;;4.97;;
35592;SDS011;64447;52.140;5.602;2024-03-25T21:37:09;9.15;;;5.13;;
35592;SDS011;64447;52.140;5.602;2024-03-25T21:39:34;9.98;;;5.43;;
35592;SDS011;64447;52.140;5.602;2024-03-25T21:42:00;9.90;;;6.00;;
35592;SDS011;64447;52.140;5.602;2024-03-25T21:44:26;6.68;;;5.30;;
35592;SDS011;64447;52.140;5.602;2024-03-25T21:46:51;7.35;;;4.93;;
35592;SDS011;64447;52.140;5.602;2024-03-25T21:49:17;10.07;;;4.85;;
35592;SDS011;64447;52.140;5.602;2024-03-25T21:51:42;9.77;;;4.88;;
35592;SDS011;64447;52.140;5.602;2024-03-25T21:54:08;9.52;;;5.50;;
35592;SDS011;64447;52.140;5.602;2024-03-25T21:56:34;9.05;;;5.22;;
35592;SDS011;64447;52.140;5.602;2024-03-25T21:59:00;7.57;;;5.30;;
35592;SDS011;64447;52.140;5.602;2024-03-25T22:01:25;10.63;;;5.32;;
35592;SDS011;64447;52.140;5.602;2024-03-25T22:03:51;7.78;;;5.05;;
35592;SDS011;64447;52.140;5.602;2024-03-25T22:06:16;10.75;;;4.95;;
35592;SDS011;64447;52.140;5.602;2024-03-25T22:08:42;11.57;;;5.40;;
35592;SDS011;64447;52.140;5.602;2024-03-25T22:11:10;9.23;;;5.07;;
35592;SDS011;64447;52.140;5.602;2024-03-25T22:13:36;10.30;;;4.75;;
35592;SDS011;64447;52.140;5.602;2024-03-25T22:16:02;9.45;;;5.60;;
35592;SDS011;64447;52.140;5.602;2024-03-25T22:18:28;8.95;;;5.32;;
35592;SDS011;64447;52.140;5.602;2024-03-25T22:20:53;8.68;;;4.63;;
35592;SDS011;64447;52.140;5.602;2024-03-25T22:23:19;11.50;;;5.28;;
35592;SDS011;64447;52.140;5.602;2024-03-25T22:25:45;12.68;;;4.70;;
35592;SDS011;64447;52.140;5.602;2024-03-25T22:28:10;7.70;;;4.70;;
35592;SDS011;64447;52.140;5.602;2024-03-25T22:30:36;11.70;;;4.57;;
35592;SDS011;64447;52.140;5.602;2024-03-25T22:33:02;8.10;;;4.45;;
35592;SDS011;64447;52.140;5.602;2024-03-25T22:35:28;5.90;;;4.65;;
35592;SDS011;64447;52.140;5.602;2024-03-25T22:37:53;6.63;;;4.47;;
35592;SDS011;64447;52.140;5.602;2024-03-25T22:40:19;10.55;;;4.90;;
35592;SDS011;64447;52.140;5.602;2024-03-25T22:42:45;8.52;;;4.75;;
35592;SDS011;64447;52.140;5.602;2024-03-25T22:45:10;8.60;;;4.70;;
35592;SDS011;64447;52.140;5.602;2024-03-25T22:47:36;7.25;;;4.97;;
35592;SDS011;64447;52.140;5.602;2024-03-25T22:50:03;7.40;;;4.97;;
35592;SDS011;64447;52.140;5.602;2024-03-25T22:52:29;8.23;;;4.45;;
35592;SDS011;64447;52.140;5.602;2024-03-25T22:54:54;9.18;;;4.55;;
35592;SDS011;64447;52.140;5.602;2024-03-25T22:57:20;10.68;;;5.20;;
35592;SDS011;64447;52.140;5.602;2024-03-25T22:59:46;7.10;;;5.10;;
35592;SDS011;64447;52.140;5.602;2024-03-25T23:02:11;9.93;;;5.57;;
35592;SDS011;64447;52.140;5.602;2024-03-25T23:04:37;8.00;;;4.53;;
35592;SDS011;64447;52.140;5.602;2024-03-25T23:07:03;11.00;;;5.28;;
35592;SDS011;64447;52.140;5.602;2024-03-25T23:09:29;12.73;;;5.57;;
35592;SDS011;64447;52.140;5.602;2024-03-25T23:11:54;6.72;;;4.68;;
35592;SDS011;64447;52.140;5.602;2024-03-25T23:14:20;7.07;;;4.57;;
35592;SDS011;64447;52.140;5.602;2024-03-25T23:16:45;12.55;;;5.68;;
35592;SDS011;64447;52.140;5.602;2024-03-25T23:19:12;8.07;;;4.75;;
35592;SDS011;64447;52.140;5.602;2024-03-25T23:21:38;7.68;;;4.93;;
35592;SDS011;64447;52.140;5.602;2024-03-25T23:24:04;8.63;;;4.68;;
35592;SDS011;64447;52.140;5.602;2024-03-25T23:26:30;9.60;;;5.07;;
35592;SDS011;64447;52.140;5.602;2024-03-25T23:28:55;9.35;;;4.90;;
35592;SDS011;64447;52.140;5.602;2024-03-25T23:31:21;10.35;;;5.15;;
35592;SDS011;64447;52.140;5.602;2024-03-25T23:33:47;5.90;;;4.70;;
35592;SDS011;64447;52.140;5.602;2024-03-25T23:36:12;8.75;;;4.80;;
35592;SDS011;64447;52.140;5.602;2024-03-25T23:38:38;8.18;;;4.53;;
35592;SDS011;64447;52.140;5.602;2024-03-25T23:41:03;5.88;;;4.63;;
35592;SDS011;64447;52.140;5.602;2024-03-25T23:43:29;7.40;;;4.82;;
35592;SDS011;64447;52.140;5.602;2024-03-25T23:45:55;7.47;;;4.50;;
35592;SDS011;64447;52.140;5.602;2024-03-25T23:48:24;6.95;;;4.68;;
35592;SDS011;64447;52.140;5.602;2024-03-25T23:50:50;12.95;;;4.90;;
35592;SDS011;64447;52.140;5.602;2024-03-25T23:53:16;7.82;;;4.88;;
35592;SDS011;64447;52.140;5.602;2024-03-25T23:55:43;9.23;;;4.65;;
35592;SDS011;64447;52.140;5.602;2024-03-25T23:58:09;5.50;;;4.55;;
